Time;durP1;ratioP1;P1;durP2;ratioP2;P2;SDS_P1;SDS_P2;PMS_P1;PMS_P2;Temp;Humidity;BMP_temperature;BMP_pressure;BME280_temperature;BME280_humidity;BME280_pressure;Samples;Min_cycle;Max_cycle;Signal;HPM_P1;HPM_P2
2022/10/25 00:00:27;;;;;;;1.57;1.00;;;14.70;98.20;;;;;;5048965;28;20572;-81
2022/10/25 00:02:54;;;;;;;1.60;1.00;;;14.60;98.20;;;;;;5020223;28;20485;-80
2022/10/25 00:05:21;;;;;;;1.53;1.00;;;14.70;98.20;;;;;;5049391;28;20545;-80
2022/10/25 00:07:48;;;;;;;1.50;1.00;;;14.60;98.20;;;;;;5019863;28;21020;-79
2022/10/25 00:10:17;;;;;;;1.57;1.00;;;14.60;98.20;;;;;;5049413;28;20458;-79
2022/10/25 00:12:45;;;;;;;1.50;1.00;;;14.60;98.20;;;;;;5036808;28;20555;-80
2022/10/25 00:15:14;;;;;;;1.50;1.00;;;14.60;98.20;;;;;;5049909;28;20465;-79
2022/10/25 00:17:42;;;;;;;1.60;1.00;;;14.60;98.20;;;;;;5021813;28;21215;-79
2022/10/25 00:20:12;;;;;;;1.57;1.00;;;14.60;98.20;;;;;;5048103;28;20480;-79
2022/10/25 00:22:39;;;;;;;1.57;1.00;;;14.60;98.20;;;;;;5021369;28;20486;-79
2022/10/25 00:25:09;;;;;;;1.57;1.00;;;14.50;98.20;;;;;;5048257;28;20458;-79
2022/10/25 00:27:38;;;;;;;1.60;1.00;;;14.50;98.20;;;;;;5037201;28;20512;-79
2022/10/25 00:30:06;;;;;;;1.53;1.00;;;14.50;98.20;;;;;;5029684;28;20460;-79
2022/10/25 00:32:34;;;;;;;1.60;1.00;;;14.50;98.20;;;;;;5017291;28;20482;-79
2022/10/25 00:35:01;;;;;;;1.50;1.00;;;14.50;98.20;;;;;;5046238;28;20470;-80
2022/10/25 00:37:29;;;;;;;1.57;1.00;;;14.50;98.20;;;;;;5023757;28;20609;-79
2022/10/25 00:39:56;;;;;;;1.57;1.00;;;14.50;98.20;;;;;;5046849;28;20553;-79
2022/10/25 00:42:25;;;;;;;1.57;1.00;;;14.50;98.20;;;;;;5037420;28;20490;-80
2022/10/25 00:44:56;;;;;;;1.57;1.00;;;14.50;98.20;;;;;;5049653;28;20466;-79
2022/10/25 00:47:42;;;;;;;1.57;1.00;;;14.50;98.20;;;;;;5037416;28;20494;-79
2022/10/25 00:50:35;;;;;;;1.53;1.00;;;14.50;98.20;;;;;;5048153;28;21300;-79
2022/10/25 00:53:08;;;;;;;1.57;1.10;;;14.50;98.20;;;;;;5029842;28;20486;-79
2022/10/25 00:55:37;;;;;;;1.60;1.10;;;14.40;98.20;;;;;;5052914;28;21221;-78
2022/10/25 00:58:08;;;;;;;1.60;1.00;;;14.40;98.20;;;;;;5024107;28;20490;-79
2022/10/25 01:00:37;;;;;;;1.57;1.00;;;14.40;98.20;;;;;;5051746;28;20459;-79
2022/10/25 01:03:06;;;;;;;1.60;1.00;;;14.40;98.20;;;;;;5044959;28;20480;-79
2022/10/25 01:05:33;;;;;;;1.60;1.07;;;14.40;98.20;;;;;;5052710;28;20896;-79
2022/10/25 01:08:01;;;;;;;1.60;1.00;;;14.40;98.20;;;;;;5040247;28;20486;-79
2022/10/25 01:10:28;;;;;;;1.60;1.00;;;14.40;98.20;;;;;;5051950;28;20466;-79
2022/10/25 01:12:55;;;;;;;1.60;1.00;;;14.40;98.20;;;;;;5031725;28;20482;-79
2022/10/25 01:15:27;;;;;;;1.60;1.10;;;14.40;98.20;;;;;;5052401;28;20474;-79
2022/10/25 01:18:03;;;;;;;1.60;1.00;;;14.40;98.20;;;;;;5024049;28;20525;-79
2022/10/25 01:20:59;;;;;;;1.60;1.00;;;14.40;98.20;;;;;;5052118;28;20497;-79
2022/10/25 01:23:44;;;;;;;1.50;1.00;;;14.40;98.20;;;;;;5024123;28;20469;-80
2022/10/25 01:26:44;;;;;;;1.60;1.00;;;14.40;98.20;;;;;;5040895;28;20568;-79
2022/10/25 01:29:33;;;;;;;1.57;1.00;;;14.40;98.20;;;;;;5024800;28;20969;-79
2022/10/25 01:32:07;;;;;;;1.50;1.00;;;14.40;98.20;;;;;;5024351;28;20505;-79
2022/10/25 01:34:41;;;;;;;1.57;1.00;;;14.50;98.20;;;;;;5036592;28;20805;-79
2022/10/25 01:37:16;;;;;;;1.53;1.00;;;14.50;98.20;;;;;;5028188;28;20976;-79
2022/10/25 01:39:49;;;;;;;1.50;1.00;;;14.50;98.20;;;;;;5032387;28;20580;-78
2022/10/25 01:42:24;;;;;;;1.57;1.00;;;14.50;98.20;;;;;;5032425;28;20528;-79
2022/10/25 01:45:19;;;;;;;1.53;1.00;;;14.60;98.20;;;;;;5047499;28;20445;-79
2022/10/25 01:47:52;;;;;;;1.57;1.00;;;14.50;98.20;;;;;;5035359;28;20566;-79
2022/10/25 01:50:24;;;;;;;1.57;1.10;;;14.50;98.20;;;;;;5050601;28;20462;-79
2022/10/25 01:52:51;;;;;;;1.53;1.00;;;14.50;98.20;;;;;;5022214;28;20945;-80
2022/10/25 01:55:19;;;;;;;1.57;1.00;;;14.50;98.20;;;;;;5050118;28;21109;-80
2022/10/25 01:58:05;;;;;;;1.60;1.00;;;14.50;98.20;;;;;;5020486;28;20494;-79
2022/10/25 02:00:41;;;;;;;1.57;1.00;;;14.50;98.20;;;;;;5050721;28;20465;-79
2022/10/25 02:03:18;;;;;;;1.60;1.00;;;14.50;98.20;;;;;;5022513;28;20531;-79
2022/10/25 02:05:59;;;;;;;1.53;1.00;;;14.50;98.20;;;;;;5050990;28;20962;-79
2022/10/25 02:08:34;;;;;;;1.57;1.00;;;14.50;98.20;;;;;;5001112;28;20554;-79
2022/10/25 02:11:06;;;;;;;1.60;1.10;;;14.50;98.20;;;;;;5024159;28;20481;-79
2022/10/25 02:13:43;;;;;;;1.60;1.00;;;14.50;98.20;;;;;;5042516;28;20591;-78
2022/10/25 02:16:13;;;;;;;1.57;1.00;;;14.50;98.20;;;;;;5036086;28;20499;-78
2022/10/25 02:18:47;;;;;;;1.50;1.00;;;14.50;98.20;;;;;;5037512;28;20470;-79
2022/10/25 02:21:18;;;;;;;1.57;1.00;;;14.50;98.20;;;;;;5038882;28;20518;-79
2022/10/25 02:23:46;;;;;;;1.57;1.00;;;14.50;98.20;;;;;;5042140;28;20471;-78
2022/10/25 02:26:15;;;;;;;1.57;1.00;;;14.50;98.20;;;;;;5023081;28;20528;-78
2022/10/25 02:28:42;;;;;;;1.60;1.10;;;14.50;98.20;;;;;;5049891;28;20593;-78
2022/10/25 02:31:14;;;;;;;1.53;1.00;;;14.50;98.20;;;;;;5035922;28;20598;-79
2022/10/25 02:33:44;;;;;;;1.60;1.10;;;14.50;98.20;;;;;;5036904;28;21112;-78
2022/10/25 02:36:14;;;;;;;1.57;1.00;;;14.50;98.20;;;;;;5039387;28;20497;-79
2022/10/25 02:38:42;;;;;;;1.53;1.00;;;14.50;98.20;;;;;;5043266;28;20459;-78
2022/10/25 02:41:10;;;;;;;1.60;1.10;;;14.40;98.20;;;;;;5023558;28;20487;-78
2022/10/25 02:43:37;;;;;;;1.60;1.00;;;14.40;98.20;;;;;;5037607;28;20485;-76
2022/10/25 02:46:08;;;;;;;1.53;1.00;;;14.40;98.20;;;;;;5040014;28;20948;-78
2022/10/25 02:48:35;;;;;;;1.53;1.00;;;14.40;98.20;;;;;;5040278;28;20477;-79
2022/10/25 02:51:04;;;;;;;1.50;1.00;;;14.40;98.20;;;;;;5038570;28;20472;-78
2022/10/25 02:53:32;;;;;;;1.53;1.03;;;14.40;98.20;;;;;;5035335;28;20505;-79
2022/10/25 02:56:01;;;;;;;1.53;1.00;;;14.40;98.20;;;;;;5036985;28;21015;-79
2022/10/25 02:58:30;;;;;;;1.57;1.00;;;14.40;98.20;;;;;;5035140;28;20494;-79
2022/10/25 03:00:58;;;;;;;1.57;1.00;;;14.40;98.20;;;;;;5037025;28;20952;-79
2022/10/25 03:03:26;;;;;;;1.60;1.00;;;14.40;98.20;;;;;;5044347;28;20870;-79
2022/10/25 03:05:53;;;;;;;1.60;1.10;;;14.40;98.20;;;;;;5021233;28;21164;-79
2022/10/25 03:08:22;;;;;;;1.57;1.00;;;14.40;98.20;;;;;;5043998;28;20463;-79
2022/10/25 03:10:50;;;;;;;1.50;0.90;;;14.40;98.20;;;;;;5026474;28;20467;-79
2022/10/25 03:13:17;;;;;;;1.53;1.00;;;14.40;98.20;;;;;;5041663;28;20512;-79
2022/10/25 03:15:45;;;;;;;1.57;1.00;;;14.40;98.20;;;;;;5050768;28;20479;-78
2022/10/25 03:18:13;;;;;;;1.53;1.00;;;14.40;98.20;;;;;;5021911;28;20466;-79
2022/10/25 03:20:41;;;;;;;1.53;1.00;;;14.50;98.20;;;;;;5050148;28;20466;-78
2022/10/25 03:23:10;;;;;;;1.57;1.00;;;14.50;98.20;;;;;;5021762;28;20486;-78
2022/10/25 03:25:38;;;;;;;1.53;1.00;;;14.50;98.20;;;;;;5050665;28;20482;-78
2022/10/25 03:28:06;;;;;;;1.50;0.90;;;14.50;98.20;;;;;;5021888;28;20542;-78
2022/10/25 03:30:33;;;;;;;1.50;1.00;;;14.50;98.20;;;;;;5050228;28;20458;-78
2022/10/25 03:33:00;;;;;;;1.57;1.00;;;14.50;98.20;;;;;;5035800;28;20482;-79
2022/10/25 03:36:22;;;;;;;;;;;;;;;;;;;;;
2022/10/25 03:39:30;;;;;;;1.53;1.00;;;14.50;98.20;;;;;;5004525;28;20470;-80
2022/10/25 03:42:11;;;;;;;1.53;1.00;;;14.50;98.20;;;;;;5028792;28;20900;-81
2022/10/25 03:44:38;;;;;;;1.57;1.00;;;14.50;98.20;;;;;;5046556;28;20454;-80
2022/10/25 03:47:05;;;;;;;1.57;1.00;;;14.60;98.20;;;;;;5037757;28;20560;-80
2022/10/25 03:49:32;;;;;;;1.50;1.00;;;14.60;98.20;;;;;;5042483;28;20462;-79
2022/10/25 03:51:59;;;;;;;1.57;1.03;;;14.60;98.20;;;;;;5035748;28;20475;-77
2022/10/25 03:54:26;;;;;;;1.57;0.90;;;14.60;98.20;;;;;;5042040;28;21168;-79
2022/10/25 03:56:53;;;;;;;1.50;0.90;;;14.60;98.20;;;;;;5029986;28;20487;-81
2022/10/25 03:59:22;;;;;;;1.60;1.00;;;14.60;98.20;;;;;;5043062;28;20465;-80
2022/10/25 04:01:49;;;;;;;1.53;1.00;;;14.60;98.20;;;;;;5037576;28;20536;-81
2022/10/25 04:04:16;;;;;;;1.57;1.00;;;14.60;98.20;;;;;;5042666;28;20459;-81
2022/10/25 04:06:43;;;;;;;1.53;0.90;;;14.60;98.20;;;;;;5028304;28;20487;-79
2022/10/25 04:09:11;;;;;;;1.57;1.00;;;14.60;98.20;;;;;;5039290;28;20458;-78
2022/10/25 04:11:38;;;;;;;1.50;1.00;;;14.60;98.20;;;;;;5036206;28;20923;-78
2022/10/25 04:14:05;;;;;;;1.53;1.00;;;14.60;98.20;;;;;;5042095;28;20564;-78
2022/10/25 04:16:33;;;;;;;1.60;1.00;;;14.60;98.20;;;;;;5032219;28;20491;-78
2022/10/25 04:19:00;;;;;;;1.57;1.00;;;14.60;98.20;;;;;;5040953;28;20454;-80
2022/10/25 04:21:28;;;;;;;1.57;1.00;;;14.60;98.20;;;;;;5032994;28;20498;-79
2022/10/25 04:24:10;;;;;;;1.53;1.00;;;14.60;98.20;;;;;;5039075;28;20943;-79
2022/10/25 04:27:32;;;;;;;1.60;1.10;;;14.60;98.20;;;;;;5030715;28;20483;-80
2022/10/25 04:30:42;;;;;;;1.53;0.90;;;14.60;98.20;;;;;;5049947;28;20457;-79
2022/10/25 04:33:10;;;;;;;1.50;1.00;;;14.60;98.20;;;;;;5022033;28;21071;-80
2022/10/25 04:36:31;;;;;;;1.53;0.97;;;14.60;98.20;;;;;;5049297;28;20573;-80
2022/10/25 04:39:00;;;;;;;1.53;1.00;;;14.60;98.20;;;;;;5048540;28;20454;-80
2022/10/25 04:41:28;;;;;;;1.53;1.00;;;14.60;98.20;;;;;;5031189;28;20487;-80
2022/10/25 04:43:56;;;;;;;1.53;1.00;;;14.60;98.20;;;;;;5038684;28;20504;-80
2022/10/25 04:46:59;;;;;;;;;;;;;;;;;;;;;
2022/10/25 04:49:36;;;;;;;1.53;1.00;;;14.50;98.20;;;;;;5038578;28;20474;-80
2022/10/25 04:52:09;;;;;;;1.53;1.00;;;14.50;98.20;;;;;;5025918;28;20556;-80
2022/10/25 04:54:36;;;;;;;1.60;1.00;;;14.50;98.20;;;;;;5034710;28;21020;-80
2022/10/25 04:57:12;;;;;;;1.60;1.10;;;14.50;98.20;;;;;;5028590;28;20487;-80
2022/10/25 04:59:40;;;;;;;1.50;0.90;;;14.50;98.20;;;;;;5045073;28;20465;-80
2022/10/25 05:02:07;;;;;;;1.53;1.00;;;14.50;98.20;;;;;;5037730;28;20481;-80
2022/10/25 05:04:38;;;;;;;1.57;1.00;;;14.60;98.20;;;;;;5037188;28;20952;-80
2022/10/25 05:07:05;;;;;;;1.50;1.00;;;14.60;98.20;;;;;;5018839;28;20562;-80
2022/10/25 05:09:32;;;;;;;1.60;1.10;;;14.60;98.20;;;;;;5043407;28;20466;-80
2022/10/25 05:11:59;;;;;;;1.50;1.00;;;14.60;98.20;;;;;;5026057;28;20566;-80
2022/10/25 05:14:27;;;;;;;1.60;1.10;;;14.60;98.20;;;;;;5022844;28;20495;-80
2022/10/25 05:16:54;;;;;;;1.53;1.00;;;14.60;98.20;;;;;;5022769;28;20514;-80
2022/10/25 05:19:21;;;;;;;1.57;1.00;;;14.60;98.20;;;;;;5027906;28;20471;-82
2022/10/25 05:21:49;;;;;;;1.53;1.00;;;14.60;98.20;;;;;;5015716;28;20479;-82
2022/10/25 05:24:16;;;;;;;1.60;1.00;;;14.50;98.20;;;;;;5034851;28;20490;-82
2022/10/25 05:26:47;;;;;;;1.60;1.00;;;14.50;98.20;;;;;;5031187;28;20486;-83
2022/10/25 05:29:31;;;;;;;1.53;1.00;;;14.50;98.20;;;;;;5026806;28;20667;-82
2022/10/25 05:31:59;;;;;;;1.53;1.00;;;14.40;98.20;;;;;;5021405;28;20482;-83
2022/10/25 05:34:54;;;;;;;1.57;1.00;;;14.40;98.20;;;;;;5032914;28;20504;-81
2022/10/25 05:38:14;;;;;;;1.60;1.10;;;14.40;98.20;;;;;;5020882;28;20490;-82
2022/10/25 05:40:43;;;;;;;1.50;1.00;;;14.40;98.20;;;;;;5014500;28;20478;-82
2022/10/25 05:43:10;;;;;;;1.57;1.00;;;14.30;98.20;;;;;;5039428;28;20510;-81
2022/10/25 05:45:41;;;;;;;1.53;1.00;;;14.20;98.20;;;;;;5034387;28;21108;-81
2022/10/25 05:48:08;;;;;;;1.57;1.00;;;14.20;98.20;;;;;;5032507;28;20497;-81
2022/10/25 05:50:35;;;;;;;1.57;1.00;;;14.20;98.20;;;;;;5034228;28;20548;-82
2022/10/25 05:53:02;;;;;;;1.60;1.00;;;14.10;98.20;;;;;;5034304;28;20483;-81
2022/10/25 05:55:45;;;;;;;1.53;1.00;;;14.10;98.20;;;;;;5043107;22;20483;-82
2022/10/25 06:02:26;;;;;;;1.60;1.00;;;14.10;98.20;;;;;;4898658;29;20493;-82
2022/10/25 06:04:56;;;;;;;1.57;1.00;;;14.00;98.20;;;;;;4904352;29;20472;-82
2022/10/25 06:07:23;;;;;;;1.53;1.00;;;14.00;98.20;;;;;;4899797;29;21143;-82
2022/10/25 06:09:50;;;;;;;1.60;1.00;;;14.00;98.20;;;;;;4931700;28;20469;-81
2022/10/25 06:12:17;;;;;;;1.60;1.10;;;14.00;98.20;;;;;;4986082;28;20476;-82
2022/10/25 06:14:45;;;;;;;1.57;1.00;;;14.10;98.20;;;;;;4981484;28;20648;-82
2022/10/25 06:17:12;;;;;;;1.60;1.03;;;14.10;98.20;;;;;;4981406;28;20491;-81
2022/10/25 06:19:41;;;;;;;1.57;1.00;;;14.10;98.20;;;;;;4981745;28;20790;-82
2022/10/25 06:22:08;;;;;;;1.60;1.10;;;14.00;98.20;;;;;;4971702;28;20477;-82
2022/10/25 06:24:38;;;;;;;1.50;1.00;;;14.10;98.20;;;;;;4982354;28;20480;-82
2022/10/25 06:27:05;;;;;;;1.50;1.00;;;14.00;98.20;;;;;;4982085;28;20592;-82
2022/10/25 06:29:32;;;;;;;1.60;1.10;;;14.10;98.20;;;;;;4990355;28;20466;-81
2022/10/25 06:31:59;;;;;;;1.60;1.00;;;14.10;98.20;;;;;;4980615;28;20488;-82
2022/10/25 06:34:26;;;;;;;1.60;1.10;;;14.10;98.20;;;;;;4972835;28;20465;-81
2022/10/25 06:40:13;;;;;;;1.57;1.00;;;14.10;98.20;;;;;;4948840;28;20458;-82
2022/10/25 06:42:44;;;;;;;1.57;1.00;;;14.10;98.20;;;;;;4991211;28;20562;-82
2022/10/25 06:45:11;;;;;;;1.60;1.00;;;14.10;98.20;;;;;;4974275;28;20943;-81
2022/10/25 06:47:38;;;;;;;1.50;1.00;;;14.10;98.20;;;;;;4985377;28;20480;-82
2022/10/25 06:50:06;;;;;;;1.60;1.00;;;14.20;98.20;;;;;;4978087;28;20508;-82
2022/10/25 06:52:34;;;;;;;1.60;1.00;;;14.20;98.20;;;;;;4990650;28;20519;-81
2022/10/25 06:55:01;;;;;;;1.53;1.00;;;14.20;98.20;;;;;;4979294;28;21093;-82
2022/10/25 06:57:44;;;;;;;1.60;1.00;;;14.20;98.20;;;;;;4992274;28;20988;-82
2022/10/25 07:00:13;;;;;;;1.60;1.10;;;14.20;98.20;;;;;;5001789;28;20625;-81
2022/10/25 07:02:40;;;;;;;1.60;1.03;;;14.30;98.20;;;;;;4998523;28;20487;-81
2022/10/25 07:05:08;;;;;;;1.57;1.00;;;14.30;98.20;;;;;;5014319;28;20472;-82
2022/10/25 07:07:35;;;;;;;1.60;1.10;;;14.30;98.20;;;;;;5008627;28;20558;-82
2022/10/25 07:10:06;;;;;;;1.53;1.00;;;14.30;98.20;;;;;;5014517;28;20921;-82
2022/10/25 07:12:37;;;;;;;1.57;1.00;;;14.30;98.20;;;;;;5002638;28;20909;-83
2022/10/25 07:15:09;;;;;;;1.57;1.00;;;14.30;98.20;;;;;;5011491;28;20511;-82
2022/10/25 07:17:39;;;;;;;1.60;1.00;;;14.40;98.20;;;;;;5012753;28;20483;-82
2022/10/25 07:20:27;;;;;;;1.60;1.10;;;14.40;98.20;;;;;;5014694;28;20478;-82
2022/10/25 07:26:09;;;;;;;1.60;1.07;;;14.60;98.20;;;;;;4985532;28;20468;-82
2022/10/25 07:28:37;;;;;;;1.60;1.00;;;14.70;98.20;;;;;;5022610;28;20480;-82
2022/10/25 07:31:06;;;;;;;1.53;0.93;;;14.70;98.20;;;;;;4999139;28;20479;-81
2022/10/25 07:33:33;;;;;;;1.57;1.00;;;14.80;98.20;;;;;;5024160;28;20496;-82
2022/10/25 07:36:01;;;;;;;1.57;0.90;;;14.80;98.20;;;;;;5003554;28;20994;-82
2022/10/25 07:38:28;;;;;;;1.60;1.00;;;14.80;98.20;;;;;;5018128;28;20479;-80
2022/10/25 07:40:56;;;;;;;1.60;1.07;;;14.90;98.20;;;;;;5001680;28;20475;-81
2022/10/25 07:43:25;;;;;;;1.60;1.00;;;14.90;98.20;;;;;;5000915;28;20942;-82
2022/10/25 07:45:52;;;;;;;1.60;1.00;;;15.00;98.20;;;;;;4993318;28;21109;-81
2022/10/25 07:48:22;;;;;;;1.60;1.00;;;15.00;98.20;;;;;;4989906;28;20465;-81
2022/10/25 07:50:49;;;;;;;1.57;1.00;;;15.10;98.20;;;;;;4980190;28;20483;-81
2022/10/25 07:53:17;;;;;;;1.60;1.00;;;15.10;98.20;;;;;;5008100;28;20576;-80
2022/10/25 07:55:52;;;;;;;1.60;1.00;;;15.20;98.20;;;;;;5011738;28;20559;-81
2022/10/25 07:58:19;;;;;;;1.60;1.00;;;15.20;98.20;;;;;;4982741;28;21011;-79
2022/10/25 08:00:48;;;;;;;1.60;1.00;;;15.30;98.20;;;;;;4998793;28;20471;-80
2022/10/25 08:03:16;;;;;;;1.60;1.10;;;15.40;98.20;;;;;;4976837;28;20535;-82
2022/10/25 08:05:46;;;;;;;1.60;1.00;;;15.40;98.20;;;;;;4976528;28;20564;-82
2022/10/25 08:08:15;;;;;;;1.60;1.00;;;15.50;98.20;;;;;;4982628;28;20468;-80
2022/10/25 08:10:44;;;;;;;1.60;1.00;;;15.60;98.20;;;;;;5011038;28;20464;-81
2022/10/25 08:13:11;;;;;;;1.60;1.00;;;15.60;98.20;;;;;;4989873;28;20479;-81
2022/10/25 08:15:39;;;;;;;1.60;1.00;;;15.60;98.20;;;;;;4992341;28;20949;-81
2022/10/25 08:18:08;;;;;;;1.60;1.00;;;15.70;98.20;;;;;;4999146;28;20511;-80
2022/10/25 08:20:36;;;;;;;1.60;1.00;;;15.70;98.20;;;;;;5011518;28;20468;-80
2022/10/25 08:23:32;;;;;;;1.60;1.00;;;15.80;98.20;;;;;;5009539;28;20484;-78
2022/10/25 08:26:13;;;;;;;1.60;1.00;;;15.80;98.20;;;;;;5002105;28;20542;-81
2022/10/25 08:28:40;;;;;;;1.60;1.00;;;15.90;98.20;;;;;;4991748;28;20476;-79
2022/10/25 08:31:28;;;;;;;1.60;1.00;;;15.90;98.20;;;;;;4982287;28;20483;-79
2022/10/25 08:34:07;;;;;;;1.60;1.00;;;16.00;98.20;;;;;;5009730;28;20563;-80
2022/10/25 08:36:35;;;;;;;1.60;1.00;;;16.10;98.20;;;;;;4995452;28;20487;-81
2022/10/25 08:39:04;;;;;;;1.57;0.90;;;16.10;98.20;;;;;;4992519;28;20970;-81
2022/10/25 08:41:43;;;;;;;1.60;1.00;;;16.10;98.20;;;;;;4990751;28;20911;-81
2022/10/25 08:44:23;;;;;;;1.60;1.00;;;16.10;98.20;;;;;;4999502;28;20467;-81
2022/10/25 08:47:01;;;;;;;1.60;0.97;;;16.10;98.20;;;;;;4981880;28;20492;-81
2022/10/25 08:49:35;;;;;;;1.60;0.90;;;16.10;98.20;;;;;;4999169;28;20463;-80
2022/10/25 08:52:03;;;;;;;1.60;1.00;;;16.10;98.20;;;;;;4974911;28;20482;-80
2022/10/25 08:54:36;;;;;;;1.60;1.00;;;16.10;98.20;;;;;;4971672;28;20473;-80
2022/10/25 08:57:11;;;;;;;1.60;0.97;;;16.20;98.20;;;;;;4970462;28;20485;-80
2022/10/25 08:59:44;;;;;;;1.60;1.10;;;16.40;98.20;;;;;;4984074;28;20460;-80
2022/10/25 09:02:22;;;;;;;1.60;1.00;;;16.60;98.20;;;;;;4978303;28;20569;-80
2022/10/25 09:04:57;;;;;;;1.60;0.90;;;16.90;98.20;;;;;;4985901;28;21001;-80
2022/10/25 09:07:53;;;;;;;1.60;0.90;;;17.20;98.20;;;;;;4971125;28;20480;-80
2022/10/25 09:13:43;;;;;;;1.60;0.90;;;17.60;98.20;;;;;;4990821;28;20567;-81
2022/10/25 09:16:17;;;;;;;1.60;0.90;;;17.80;98.20;;;;;;4984605;28;20537;-80
2022/10/25 09:18:49;;;;;;;1.60;1.00;;;18.10;98.20;;;;;;5003273;28;20541;-80
2022/10/25 09:21:21;;;;;;;1.60;1.00;;;18.30;98.20;;;;;;4984086;28;20476;-80
2022/10/25 09:23:58;;;;;;;1.60;1.00;;;18.60;98.20;;;;;;4993261;28;20456;-79
2022/10/25 09:26:41;;;;;;;1.60;0.90;;;18.60;98.20;;;;;;4982388;28;20488;-79
2022/10/25 09:29:15;;;;;;;1.60;0.90;;;18.50;98.20;;;;;;4997665;28;20628;-78
2022/10/25 09:31:48;;;;;;;1.60;0.90;;;18.40;98.20;;;;;;4984860;28;20494;-79
2022/10/25 09:34:20;;;;;;;1.60;1.00;;;18.30;98.20;;;;;;4994804;28;20481;-77
2022/10/25 09:36:49;;;;;;;1.60;0.90;;;18.20;98.20;;;;;;4987344;28;20535;-78
2022/10/25 09:39:21;;;;;;;1.60;1.00;;;18.00;98.20;;;;;;4995860;28;20751;-78
2022/10/25 09:41:53;;;;;;;1.60;0.93;;;17.80;98.20;;;;;;4985793;28;20587;-78
2022/10/25 09:44:48;;;;;;;1.60;0.90;;;17.60;98.20;;;;;;4998811;28;20492;-78
2022/10/25 09:47:28;;;;;;;1.60;1.00;;;17.40;98.20;;;;;;4993783;28;20484;-78
2022/10/25 09:50:02;;;;;;;1.60;1.00;;;17.30;98.20;;;;;;4997524;28;20504;-80
2022/10/25 09:52:37;;;;;;;1.57;0.90;;;17.30;98.20;;;;;;4990522;28;20579;-80
2022/10/25 09:55:39;;;;;;;1.57;1.00;;;17.30;98.20;;;;;;4993150;28;20473;-79
2022/10/25 09:58:16;;;;;;;1.60;1.00;;;17.30;98.20;;;;;;4983907;28;20472;-80
2022/10/25 10:00:47;;;;;;;1.60;1.00;;;17.30;98.20;;;;;;4992740;28;20471;-79
2022/10/25 10:03:15;;;;;;;1.60;1.00;;;17.30;98.20;;;;;;4971275;28;20489;-80
2022/10/25 10:05:47;;;;;;;1.60;1.03;;;17.30;98.20;;;;;;4994232;28;20583;-80
2022/10/25 10:08:20;;;;;;;1.60;1.00;;;17.30;98.20;;;;;;4972266;28;20500;-80
2022/10/25 10:10:50;;;;;;;1.57;0.90;;;17.30;98.20;;;;;;4996116;28;20465;-80
2022/10/25 10:13:27;;;;;;;1.53;0.90;;;17.30;98.20;;;;;;5006469;28;21009;-82
2022/10/25 10:15:58;;;;;;;1.57;0.90;;;17.30;98.20;;;;;;4985172;28;20492;-80
2022/10/25 10:18:31;;;;;;;1.57;0.97;;;17.30;98.20;;;;;;4992603;28;20469;-80
2022/10/25 10:21:19;;;;;;;1.57;1.00;;;17.40;98.20;;;;;;4979136;28;20749;-80
2022/10/25 10:27:26;;;;;;;1.60;1.00;;;17.50;98.20;;;;;;4980729;28;20499;-80
2022/10/25 10:32:41;;;;;;;1.53;0.90;;;17.60;98.20;;;;;;4979725;28;20515;-81
2022/10/25 10:35:28;;;;;;;1.60;0.93;;;17.70;98.20;;;;;;4994309;28;20564;-80
2022/10/25 10:38:25;;;;;;;1.50;0.90;;;17.80;98.20;;;;;;4975109;28;20476;-81
2022/10/25 10:43:36;;;;;;;1.60;1.00;;;18.00;98.20;;;;;;4924439;29;20961;-80
2022/10/25 10:46:14;;;;;;;1.57;1.00;;;18.10;98.20;;;;;;4974347;28;20502;-81
2022/10/25 10:48:44;;;;;;;1.60;1.00;;;18.40;98.20;;;;;;4997225;28;20456;-81
2022/10/25 10:51:18;;;;;;;1.60;0.90;;;18.60;98.20;;;;;;4983537;28;20715;-79
2022/10/25 10:53:48;;;;;;;1.60;0.90;;;18.70;98.20;;;;;;4993001;28;20465;-79
2022/10/25 10:56:22;;;;;;;1.60;0.90;;;18.70;98.20;;;;;;4985571;28;21048;-78
2022/10/25 10:58:51;;;;;;;1.60;0.90;;;18.60;98.20;;;;;;4993147;28;20832;-79
2022/10/25 11:01:33;;;;;;;1.50;1.00;;;18.40;98.20;;;;;;4979849;28;21018;-79
2022/10/25 11:04:06;;;;;;;1.60;1.10;;;18.50;98.20;;;;;;4991442;28;20501;-79
2022/10/25 11:06:35;;;;;;;1.53;0.90;;;18.50;98.20;;;;;;4994609;28;20879;-79
2022/10/25 11:09:15;;;;;;;1.60;0.90;;;18.60;98.20;;;;;;5022345;28;20553;-78
2022/10/25 11:12:04;;;;;;;1.60;0.90;;;18.50;98.20;;;;;;4999351;28;20488;-78
2022/10/25 11:14:32;;;;;;;1.60;0.90;;;18.50;98.20;;;;;;4997788;28;21031;-78
2022/10/25 11:17:05;;;;;;;1.57;0.90;;;18.70;98.20;;;;;;4991097;28;20870;-78
2022/10/25 11:19:53;;;;;;;1.60;0.90;;;18.90;98.20;;;;;;4995933;28;20554;-78
2022/10/25 11:22:37;;;;;;;1.60;0.90;;;19.20;98.20;;;;;;4995716;28;21011;-81
2022/10/25 11:25:19;;;;;;;1.60;0.90;;;19.50;98.20;;;;;;5012397;28;20750;-80
2022/10/25 11:28:01;;;;;;;1.60;1.00;;;19.70;98.20;;;;;;4998608;28;20491;-77
2022/10/25 11:30:36;;;;;;;1.57;0.90;;;19.70;98.20;;;;;;5000748;28;20972;-78
2022/10/25 11:33:40;;;;;;;1.60;0.90;;;19.70;98.20;;;;;;4991489;28;20530;-78
2022/10/25 11:36:32;;;;;;;1.57;0.90;;;19.70;98.20;;;;;;4993277;28;20566;-79
2022/10/25 11:39:10;;;;;;;1.53;0.90;;;19.60;98.20;;;;;;4986952;28;20465;-79
2022/10/25 11:41:45;;;;;;;1.57;0.90;;;19.30;98.20;;;;;;4977185;28;20477;-78
2022/10/25 11:44:30;;;;;;;1.53;0.90;;;19.20;98.20;;;;;;4987049;28;20468;-79
2022/10/25 11:47:08;;;;;;;1.60;0.97;;;19.30;98.20;;;;;;4976123;28;20543;-79
2022/10/25 11:49:48;;;;;;;1.60;0.90;;;19.30;98.20;;;;;;4991055;28;20519;-78
2022/10/25 11:52:40;;;;;;;1.57;0.90;;;19.50;98.20;;;;;;4988976;28;20488;-79
2022/10/25 11:55:20;;;;;;;1.53;0.90;;;19.60;98.20;;;;;;4991236;28;20473;-78
2022/10/25 11:57:56;;;;;;;1.60;1.00;;;19.60;98.20;;;;;;4986310;28;20839;-78
2022/10/25 12:00:30;;;;;;;1.53;1.00;;;19.60;98.20;;;;;;4992177;28;20492;-79
2022/10/25 12:03:15;;;;;;;1.57;0.93;;;19.50;98.20;;;;;;4986317;28;20514;-78
2022/10/25 12:05:49;;;;;;;1.50;0.90;;;19.30;98.20;;;;;;4995087;28;20504;-79
2022/10/25 12:08:29;;;;;;;1.57;0.90;;;19.20;98.20;;;;;;4963465;28;21233;-78
2022/10/25 12:11:02;;;;;;;1.60;1.10;;;19.10;98.20;;;;;;4978911;28;20571;-76
2022/10/25 12:13:33;;;;;;;1.57;0.90;;;19.00;98.20;;;;;;4992967;28;20472;-77
2022/10/25 12:16:02;;;;;;;1.53;0.93;;;19.00;98.20;;;;;;4980686;28;20516;-77
2022/10/25 12:18:35;;;;;;;1.57;0.90;;;18.90;98.20;;;;;;5007671;28;21015;-78
2022/10/25 12:21:06;;;;;;;1.53;1.00;;;18.80;98.20;;;;;;4999345;28;21092;-78
2022/10/25 12:23:41;;;;;;;1.60;0.90;;;18.80;98.20;;;;;;4999909;28;20506;-78
2022/10/25 12:26:17;;;;;;;1.53;0.90;;;18.70;98.20;;;;;;4987027;28;20480;-78
2022/10/25 12:28:47;;;;;;;1.50;0.90;;;18.70;98.20;;;;;;5001873;28;20950;-78
2022/10/25 12:31:17;;;;;;;1.57;0.90;;;18.70;98.20;;;;;;4985653;28;20482;-78
2022/10/25 12:33:53;;;;;;;1.60;1.00;;;18.70;98.20;;;;;;5012288;28;20547;-78
2022/10/25 12:36:29;;;;;;;1.53;0.90;;;18.80;98.20;;;;;;5003223;28;20484;-77
2022/10/25 12:38:59;;;;;;;1.60;0.93;;;18.80;98.20;;;;;;5009181;28;20475;-78
2022/10/25 12:41:30;;;;;;;1.60;1.00;;;18.90;98.20;;;;;;5003346;28;20476;-77
2022/10/25 12:44:17;;;;;;;1.53;0.90;;;18.90;98.20;;;;;;5007117;28;20492;-78
2022/10/25 12:47:04;;;;;;;1.57;0.90;;;18.90;98.20;;;;;;5030261;23;20922;-77
2022/10/25 12:49:57;;;;;;;1.60;1.00;;;18.90;98.20;;;;;;4985558;28;20564;-78
2022/10/25 12:52:34;;;;;;;1.57;0.90;;;18.90;98.20;;;;;;5001930;28;20484;-78
2022/10/25 12:55:37;;;;;;;1.50;0.90;;;18.90;98.20;;;;;;5016476;28;20667;-78
2022/10/25 12:58:29;;;;;;;1.50;0.90;;;19.10;98.20;;;;;;4994945;28;20530;-78
2022/10/25 13:01:22;;;;;;;1.53;0.90;;;19.30;98.20;;;;;;4981345;28;20540;-78
2022/10/25 13:04:12;;;;;;;1.50;0.90;;;19.60;98.20;;;;;;4979285;28;20812;-77
2022/10/25 13:06:43;;;;;;;1.57;0.90;;;19.90;97.10;;;;;;4974187;28;20492;-77
2022/10/25 13:09:14;;;;;;;1.53;0.90;;;20.00;96.10;;;;;;4981167;28;20462;-78
2022/10/25 13:11:47;;;;;;;1.60;0.90;;;20.20;95.50;;;;;;4965455;28;20529;-78
2022/10/25 13:14:27;;;;;;;1.60;0.90;;;20.20;94.60;;;;;;4981160;28;20859;-78
2022/10/25 13:17:28;;;;;;;1.60;0.90;;;20.10;94.40;;;;;;4978751;28;20473;-77
2022/10/25 13:20:34;;;;;;;1.57;0.90;;;20.00;95.10;;;;;;5005197;28;20459;-78
2022/10/25 13:23:21;;;;;;;1.60;0.93;;;19.80;95.50;;;;;;4962326;28;20572;-77
2022/10/25 13:26:08;;;;;;;1.57;0.90;;;19.80;95.70;;;;;;4974277;28;20584;-77
2022/10/25 13:28:45;;;;;;;1.53;0.90;;;19.70;96.70;;;;;;5007285;28;20503;-77
2022/10/25 13:31:52;;;;;;;1.57;0.90;;;19.80;96.30;;;;;;4996176;28;20488;-77
2022/10/25 13:34:36;;;;;;;1.57;0.90;;;19.90;95.30;;;;;;4996816;28;20471;-77
2022/10/25 13:37:06;;;;;;;1.57;0.90;;;20.00;93.70;;;;;;4982147;28;20655;-76
2022/10/25 13:39:38;;;;;;;1.60;0.90;;;20.10;94.10;;;;;;4997600;28;20465;-77
2022/10/25 13:42:23;;;;;;;1.57;0.90;;;20.20;93.50;;;;;;4977767;28;20565;-77
2022/10/25 13:44:56;;;;;;;1.57;0.90;;;20.20;91.80;;;;;;4997518;28;20579;-77
2022/10/25 13:47:34;;;;;;;1.60;0.90;;;20.20;92.20;;;;;;4976739;28;20568;-77